createdAt,value
2018-06-01T00:01:20.050Z,47.50
2018-06-01T00:03:48.444Z,47.80
2018-06-01T00:06:16.887Z,48.40
2018-06-01T00:08:45.257Z,48.70
2018-06-01T00:11:13.657Z,48.90
2018-06-01T00:13:42.105Z,49.50
2018-06-01T00:16:10.516Z,49.20
2018-06-01T00:18:38.940Z,49.30
2018-06-01T00:21:08.167Z,50.00
2018-06-01T00:23:36.575Z,49.90
2018-06-01T00:26:05.025Z,50.20
2018-06-01T00:28:33.804Z,50.20
2018-06-01T00:31:02.989Z,49.50
2018-06-01T00:33:32.151Z,49.40
2018-06-01T00:36:00.623Z,49.40
2018-06-01T00:38:29.013Z,49.20
2018-06-01T00:40:58.202Z,48.80
2018-06-01T00:43:26.695Z,48.80
2018-06-01T00:45:55.096Z,48.90
2018-06-01T00:48:23.493Z,49.10
2018-06-01T00:50:51.955Z,48.90
2018-06-01T00:53:20.377Z,49.20
2018-06-01T00:55:48.755Z,48.90
2018-06-01T00:58:17.172Z,48.80
2018-06-01T01:00:45.556Z,48.80
2018-06-01T01:03:13.973Z,49.00
2018-06-01T01:05:43.183Z,49.10
2018-06-01T01:08:11.611Z,49.20
2018-06-01T01:10:40.772Z,49.20
2018-06-01T01:13:09.935Z,49.20
2018-06-01T01:15:39.129Z,50.30
2018-06-01T01:18:07.561Z,50.30
2018-06-01T01:20:36.015Z,49.80
2018-06-01T01:23:04.437Z,50.00
2018-06-01T01:25:32.820Z,50.70
2018-06-01T01:28:02.083Z,50.90
2018-06-01T01:30:30.488Z,50.90
2018-06-01T01:32:59.707Z,51.30
2018-06-01T01:35:28.938Z,51.50
2018-06-01T01:37:58.087Z,51.90
2018-06-01T01:40:26.478Z,51.90
2018-06-01T01:42:55.743Z,52.60
2018-06-01T01:45:24.165Z,52.60
2018-06-01T01:47:53.358Z,53.40
2018-06-01T01:50:21.804Z,53.30
2018-06-01T01:52:50.201Z,53.10
2018-06-01T01:55:19.589Z,53.20
2018-06-01T01:57:48.041Z,53.50
2018-06-01T02:00:17.201Z,53.00
2018-06-01T02:02:46.199Z,53.00
2018-06-01T02:05:14.632Z,52.90
2018-06-01T02:07:43.017Z,53.50
2018-06-01T02:10:11.447Z,53.90
2018-06-01T02:12:39.892Z,53.80
2018-06-01T02:15:08.301Z,54.30
2018-06-01T02:17:38.739Z,54.10
2018-06-01T02:20:07.236Z,54.10
2018-06-01T02:22:36.407Z,54.90
2018-06-01T02:25:04.842Z,55.00
2018-06-01T02:27:33.316Z,55.40
2018-06-01T02:30:01.689Z,56.00
2018-06-01T02:32:30.096Z,55.90
2018-06-01T02:34:58.580Z,56.40
2018-06-01T02:37:26.981Z,57.10
2018-06-01T02:39:56.033Z,57.00
2018-06-01T02:42:24.477Z,56.00
2018-06-01T02:44:52.961Z,55.60
2018-06-01T02:47:22.133Z,56.20
2018-06-01T02:49:50.598Z,56.10
2018-06-01T02:52:18.989Z,55.60
2018-06-01T02:54:47.411Z,54.80
2018-06-01T02:57:15.901Z,55.20
2018-06-01T02:59:44.295Z,55.60
2018-06-01T03:02:13.613Z,55.80
2018-06-01T03:04:42.041Z,55.80
2018-06-01T03:07:11.257Z,55.70
2018-06-01T03:09:39.643Z,55.70
2018-06-01T03:12:08.147Z,55.60
2018-06-01T03:14:36.549Z,57.00
2018-06-01T03:17:04.977Z,57.40
2018-06-01T03:19:34.189Z,56.40
2018-06-01T03:22:02.638Z,56.40
2018-06-01T03:24:31.816Z,56.70
2018-06-01T03:27:00.272Z,56.70
2018-06-01T03:29:28.668Z,58.00
2018-06-01T03:31:57.076Z,57.50
2018-06-01T03:34:26.297Z,58.30
2018-06-01T03:36:55.482Z,58.80
2018-06-01T03:39:24.642Z,58.80
2018-06-01T03:41:53.114Z,58.80
2018-06-01T03:44:21.490Z,58.60
2018-06-01T03:46:49.894Z,58.60
2018-06-01T03:49:19.149Z,57.80
2018-06-01T03:51:47.524Z,57.80
2018-06-01T03:54:15.924Z,58.40
2018-06-01T03:56:44.375Z,58.70
2018-06-01T03:59:12.822Z,58.80
2018-06-01T04:01:41.216Z,58.00
2018-06-01T04:04:10.509Z,59.40
2018-06-01T04:06:39.689Z,59.60
2018-06-01T04:09:08.088Z,59.60
2018-06-01T04:11:36.548Z,59.30
2018-06-01T04:14:05.745Z,60.00
2018-06-01T04:16:34.142Z,60.00
2018-06-01T04:19:02.605Z,60.00
2018-06-01T04:21:31.013Z,61.30
2018-06-01T04:24:00.182Z,61.80
2018-06-01T04:26:28.644Z,61.90
2018-06-01T04:28:57.037Z,63.10
2018-06-01T04:31:25.429Z,65.40
2018-06-01T04:33:53.880Z,65.40
2018-06-01T04:36:22.268Z,65.50
2018-06-01T04:38:50.667Z,64.70
2018-06-01T04:41:19.169Z,65.80
2018-06-01T04:43:47.631Z,65.90
2018-06-01T04:46:16.800Z,66.70
2018-06-01T04:48:45.272Z,66.80
2018-06-01T04:51:13.712Z,67.90
2018-06-01T04:53:42.883Z,67.00
2018-06-01T04:56:11.384Z,67.00
2018-06-01T04:58:40.552Z,67.10
2018-06-01T05:01:08.953Z,67.10
2018-06-01T05:03:37.396Z,67.00
2018-06-01T05:06:05.795Z,66.80
2018-06-01T05:08:34.238Z,66.90
2018-06-01T05:11:02.691Z,67.00
2018-06-01T05:13:31.133Z,66.90
2018-06-01T05:15:59.549Z,65.60
2018-06-01T05:18:28.862Z,64.60
2018-06-01T05:20:58.013Z,63.70
2018-06-01T05:23:26.402Z,63.70
2018-06-01T05:25:54.838Z,63.70
2018-06-01T05:28:23.224Z,64.20
2018-06-01T05:30:51.629Z,59.50
2018-06-01T05:33:20.144Z,58.70
2018-06-01T05:35:49.252Z,58.80
2018-06-01T05:38:18.410Z,60.10
2018-06-01T05:40:46.862Z,60.00
2018-06-01T05:43:15.256Z,59.80
2018-06-01T05:45:43.698Z,59.40
2018-06-01T05:48:12.969Z,60.40
2018-06-01T05:50:41.347Z,60.90
2018-06-01T05:53:09.738Z,60.60
2018-06-01T05:55:38.963Z,59.50
2018-06-01T05:58:07.369Z,59.50
2018-06-01T06:00:35.769Z,59.30
2018-06-01T06:03:04.292Z,59.70
2018-06-01T06:05:32.700Z,59.50
2018-06-01T06:08:01.089Z,60.20
2018-06-01T06:10:29.571Z,59.30
2018-06-01T06:12:57.980Z,59.10
2018-06-01T06:15:26.376Z,59.30
2018-06-01T06:17:55.588Z,60.70
2018-06-01T06:20:23.988Z,60.70
2018-06-01T06:22:52.380Z,59.70
2018-06-01T06:25:20.836Z,60.40
2018-06-01T06:27:49.322Z,59.10
2018-06-01T06:30:17.737Z,59.20
2018-06-01T06:32:46.218Z,59.80
2018-06-01T06:35:15.212Z,59.20
2018-06-01T06:37:43.651Z,59.20
2018-06-01T06:40:12.615Z,58.80
2018-06-01T06:42:41.043Z,58.50
2018-06-01T06:45:09.493Z,58.40
2018-06-01T06:47:38.706Z,58.30
2018-06-01T06:50:07.102Z,58.30
2018-06-01T06:52:35.493Z,58.00
2018-06-01T06:55:05.333Z,57.70
2018-06-01T06:57:35.328Z,57.50
2018-06-01T07:00:03.814Z,56.80
2018-06-01T07:05:07.367Z,56.80
2018-06-01T07:07:36.736Z,56.40
2018-06-01T07:10:05.212Z,56.30
2018-06-01T07:12:33.608Z,56.50
2018-06-01T07:15:02.081Z,55.90
2018-06-01T07:17:30.540Z,55.50
2018-06-01T07:19:58.923Z,56.00
2018-06-01T07:22:27.390Z,55.50
2018-06-01T07:24:55.796Z,55.80
2018-06-01T07:27:24.188Z,55.30
2018-06-01T07:29:52.615Z,55.70
2018-06-01T07:32:21.037Z,56.10
2018-06-01T07:34:49.528Z,55.40
2018-06-01T07:37:17.964Z,55.80
2018-06-01T07:39:46.343Z,55.20
2018-06-01T07:42:14.744Z,55.00
2018-06-01T07:44:43.215Z,55.10
2018-06-01T07:47:11.668Z,55.10
2018-06-01T07:49:40.841Z,55.30
2018-06-01T07:52:09.281Z,55.20
2018-06-01T07:54:37.780Z,55.60
2018-06-01T07:57:06.212Z,55.40
2018-06-01T07:59:35.438Z,54.50
2018-06-01T08:02:03.829Z,54.50
2018-06-01T08:04:33.076Z,54.10
2018-06-01T08:07:01.579Z,54.20
2018-06-01T08:09:29.986Z,54.40
2018-06-01T08:11:58.371Z,54.00
2018-06-01T08:14:26.811Z,53.20
2018-06-01T08:16:56.862Z,53.00
2018-06-01T08:19:25.338Z,53.00
2018-06-01T08:21:53.776Z,53.10
2018-06-01T08:24:23.148Z,52.00
2018-06-01T08:26:51.557Z,52.00
2018-06-01T08:29:20.017Z,51.40
2018-06-01T08:31:48.417Z,51.80
2018-06-01T08:34:16.801Z,51.00
2018-06-01T08:36:46.016Z,50.70
2018-06-01T08:39:14.456Z,50.70
2018-06-01T08:41:42.832Z,51.20
2018-06-01T08:44:11.616Z,50.80
2018-06-01T08:46:40.070Z,50.10
2018-06-01T08:49:08.443Z,50.30
2018-06-01T08:51:36.884Z,50.40
2018-06-01T08:54:06.044Z,49.90
2018-06-01T08:56:34.458Z,49.80
2018-06-01T08:59:02.963Z,49.10
2018-06-01T09:01:32.115Z,48.30
2018-06-01T09:04:00.518Z,48.30
2018-06-01T09:06:29.752Z,47.50
2018-06-01T09:08:58.142Z,47.30
2018-06-01T09:11:26.572Z,46.20
2018-06-01T09:13:55.053Z,46.80
2018-06-01T09:16:23.444Z,46.50
2018-06-01T09:18:52.614Z,44.70
2018-06-01T09:21:21.052Z,44.70
2018-06-01T09:23:49.456Z,43.40
2018-06-01T09:26:17.855Z,45.50
2018-06-01T09:28:46.292Z,45.60
2018-06-01T09:31:14.720Z,44.20
2018-06-01T09:33:43.112Z,42.70
2018-06-01T09:36:11.562Z,43.20
2018-06-01T09:38:39.952Z,43.80
2018-06-01T09:41:08.360Z,41.80
2018-06-01T09:43:36.804Z,42.80
2018-06-01T09:46:05.922Z,40.10
2018-06-01T09:48:34.410Z,41.90
2018-06-01T09:51:03.704Z,42.50
2018-06-01T09:53:32.891Z,41.70
2018-06-01T09:56:01.267Z,41.60
2018-06-01T09:58:29.749Z,37.70
2018-06-01T10:00:59.889Z,38.70
2018-06-01T10:03:28.315Z,39.00
2018-06-01T10:05:56.828Z,38.70
2018-06-01T10:08:25.700Z,39.20
2018-06-01T10:10:54.127Z,39.10
2018-06-01T10:13:23.565Z,38.30
2018-06-01T10:15:51.971Z,39.30
2018-06-01T10:18:20.404Z,38.10
2018-06-01T10:20:48.958Z,38.10
2018-06-01T10:23:17.356Z,37.30
2018-06-01T10:25:46.528Z,37.90
2018-06-01T10:28:15.861Z,36.40
2018-06-01T10:30:45.044Z,36.00
2018-06-01T10:33:13.439Z,36.10
2018-06-01T10:35:42.677Z,35.90
2018-06-01T10:38:11.061Z,36.00
2018-06-01T10:40:39.800Z,35.50
2018-06-01T10:43:09.008Z,35.30
2018-06-01T10:45:37.395Z,34.70
2018-06-01T10:48:05.778Z,35.00
2018-06-01T10:50:34.240Z,35.30
2018-06-01T10:53:03.449Z,35.60
2018-06-01T10:55:31.874Z,35.60
2018-06-01T10:58:00.325Z,35.90
2018-06-01T11:00:28.715Z,35.80
2018-06-01T11:02:57.151Z,35.90
2018-06-01T11:05:25.634Z,35.40
2018-06-01T11:07:54.506Z,35.40
2018-06-01T11:10:22.904Z,34.50
2018-06-01T11:12:52.140Z,34.40
2018-06-01T11:15:20.551Z,34.30
2018-06-01T11:17:48.953Z,34.30
2018-06-01T11:20:17.416Z,33.80
2018-06-01T11:22:45.797Z,34.40
2018-06-01T11:25:14.215Z,33.30
2018-06-01T11:27:43.432Z,33.70
2018-06-01T11:30:11.859Z,33.70
2018-06-01T11:32:40.257Z,33.30
2018-06-01T11:35:08.736Z,33.00
2018-06-01T11:37:37.123Z,33.10
2018-06-01T11:40:05.619Z,33.60
2018-06-01T11:42:34.833Z,33.30
2018-06-01T11:45:03.263Z,33.30
2018-06-01T11:47:31.714Z,33.70
2018-06-01T11:50:00.201Z,34.30
2018-06-01T11:52:28.592Z,33.70
2018-06-01T11:54:56.995Z,33.00
2018-06-01T11:57:26.389Z,33.40
2018-06-01T11:59:55.599Z,33.60
2018-06-01T12:02:24.796Z,33.50
2018-06-01T12:04:53.256Z,33.50
2018-06-01T12:07:21.683Z,33.00
2018-06-01T12:09:50.088Z,32.40
2018-06-01T12:12:18.547Z,32.00
2018-06-01T12:14:46.969Z,32.60
2018-06-01T12:17:15.372Z,32.80
2018-06-01T12:19:43.800Z,33.20
2018-06-01T12:22:12.215Z,33.10
2018-06-01T12:24:40.623Z,32.90
2018-06-01T12:27:09.880Z,33.80
2018-06-01T12:29:38.280Z,33.80
2018-06-01T12:32:06.675Z,33.40
2018-06-01T12:34:35.140Z,33.80
2018-06-01T12:37:03.579Z,34.30
2018-06-01T12:39:32.019Z,33.70
2018-06-01T12:42:00.488Z,34.10
2018-06-01T12:44:28.885Z,34.80
2018-06-01T12:46:58.063Z,34.10
2018-06-01T12:49:26.534Z,34.10
2018-06-01T12:51:54.936Z,34.30
2018-06-01T12:54:24.136Z,34.00
2018-06-01T12:56:52.574Z,34.00
2018-06-01T12:59:20.979Z,34.00
2018-06-01T13:01:49.384Z,34.20
2018-06-01T13:04:18.617Z,33.10
2018-06-01T13:06:47.031Z,33.00
2018-06-01T13:09:15.428Z,33.90
2018-06-01T13:11:43.930Z,33.20
2018-06-01T13:14:13.098Z,33.90
2018-06-01T13:16:41.474Z,34.00
2018-06-01T13:19:09.978Z,36.30
2018-06-01T13:21:39.179Z,34.10
2018-06-01T13:24:07.605Z,34.10
2018-06-01T13:26:36.165Z,33.80
2018-06-01T13:29:04.572Z,33.70
2018-06-01T13:31:34.644Z,35.20
2018-06-01T13:34:03.896Z,36.70
2018-06-01T13:36:32.292Z,36.70
2018-06-01T13:39:00.711Z,34.50
2018-06-01T13:41:29.171Z,34.90
2018-06-01T13:43:57.563Z,35.00
2018-06-01T13:46:26.116Z,35.00
2018-06-01T13:48:54.588Z,34.90
2018-06-01T13:51:23.000Z,34.30
2018-06-01T13:53:52.183Z,33.90
2018-06-01T13:56:21.434Z,34.10
2018-06-01T13:58:49.824Z,34.00
2018-06-01T14:01:18.228Z,34.00
2018-06-01T14:03:46.696Z,34.10
2018-06-01T14:06:15.117Z,33.40
2018-06-01T14:08:44.295Z,33.70
2018-06-01T14:11:12.748Z,34.30
2018-06-01T14:13:42.123Z,34.30
2018-06-01T14:16:10.556Z,33.80
2018-06-01T14:18:39.007Z,33.80
2018-06-01T14:21:08.250Z,33.80
2018-06-01T14:23:37.408Z,33.00
2018-06-01T14:26:05.936Z,33.00
2018-06-01T14:28:34.574Z,33.30
2018-06-01T14:31:16.893Z,33.40
2018-06-01T14:33:45.547Z,33.10
2018-06-01T14:39:15.464Z,32.80
2018-06-01T14:41:45.706Z,33.20
2018-06-01T14:44:15.391Z,32.50
2018-06-01T14:46:43.849Z,32.90
2018-06-01T14:49:13.149Z,31.90
2018-06-01T14:51:42.375Z,31.90
2018-06-01T14:54:11.569Z,32.00
2018-06-01T14:56:40.955Z,32.00
2018-06-01T14:59:09.374Z,31.90
2018-06-01T15:01:37.889Z,31.60
2018-06-01T15:04:07.252Z,31.60
2018-06-01T15:06:35.687Z,31.70
2018-06-01T15:09:05.850Z,31.80
2018-06-01T15:11:34.325Z,31.70
2018-06-01T15:14:04.109Z,32.00
2018-06-01T15:16:33.317Z,31.40
2018-06-01T15:21:38.431Z,31.70
2018-06-01T15:24:08.449Z,31.30
2018-06-01T15:26:36.895Z,31.40
2018-06-01T15:29:05.362Z,31.40
2018-06-01T15:31:34.623Z,31.70
2018-06-01T15:34:06.741Z,31.70
2018-06-01T15:36:35.209Z,31.50
2018-06-01T15:39:05.409Z,31.80
2018-06-01T15:41:42.516Z,32.00
2018-06-01T15:44:11.019Z,31.20
2018-06-01T15:46:40.154Z,31.70
2018-06-01T15:49:08.620Z,31.60
2018-06-01T15:51:37.034Z,31.20
2018-06-01T15:54:05.472Z,31.30
2018-06-01T15:56:33.949Z,31.90
2018-06-01T15:59:04.565Z,31.70
2018-06-01T16:01:33.389Z,31.70
2018-06-01T16:04:04.205Z,31.60
2018-06-01T16:06:35.397Z,31.70
2018-06-01T16:09:04.511Z,31.60
2018-06-01T16:11:32.973Z,32.00
2018-06-01T16:14:01.366Z,31.80
2018-06-01T16:16:29.951Z,31.90
2018-06-01T16:18:58.441Z,32.70
2018-06-01T16:21:27.999Z,31.90
2018-06-01T16:23:56.459Z,31.80
2018-06-01T16:26:24.865Z,31.80
2018-06-01T16:28:53.347Z,31.90
2018-06-01T16:31:21.883Z,32.00
2018-06-01T16:33:51.023Z,31.80
2018-06-01T16:36:19.438Z,32.00
2018-06-01T16:38:48.706Z,32.20
2018-06-01T16:41:17.106Z,32.00
2018-06-01T16:43:46.285Z,32.20
2018-06-01T16:46:14.831Z,32.20
2018-06-01T16:48:43.335Z,32.90
2018-06-01T16:51:11.739Z,33.00
2018-06-01T16:53:40.262Z,32.90
2018-06-01T16:56:09.420Z,32.70
2018-06-01T16:58:37.820Z,32.70
2018-06-01T17:01:06.283Z,33.00
2018-06-01T17:03:34.677Z,33.40
2018-06-01T17:06:03.180Z,33.60
2018-06-01T17:08:31.679Z,33.80
2018-06-01T17:11:00.088Z,33.90
2018-06-01T17:13:28.511Z,33.60
2018-06-01T17:15:56.963Z,34.50
2018-06-01T17:18:25.367Z,34.70
2018-06-01T17:20:54.541Z,36.00
2018-06-01T17:23:23.005Z,36.00
2018-06-01T17:25:51.432Z,36.20
2018-06-01T17:28:21.854Z,37.10
2018-06-01T17:30:51.067Z,37.60
2018-06-01T17:33:19.483Z,37.70
2018-06-01T17:35:47.943Z,37.40
2018-06-01T17:38:16.438Z,37.90
2018-06-01T17:40:44.836Z,38.40
2018-06-01T17:43:13.221Z,38.50
2018-06-01T17:45:41.675Z,38.80
2018-06-01T17:48:10.097Z,38.90
2018-06-01T17:50:39.305Z,39.30
2018-06-01T17:53:08.556Z,40.80
2018-06-01T17:55:37.515Z,40.80
2018-06-01T17:58:07.489Z,41.50
2018-06-01T18:00:37.615Z,41.90
2018-06-01T18:03:07.563Z,41.90
2018-06-01T18:05:39.655Z,42.10
2018-06-01T18:08:09.903Z,42.00
2018-06-01T18:10:39.661Z,42.00
2018-06-01T18:13:11.092Z,42.10
2018-06-01T18:15:41.639Z,42.10
2018-06-01T18:18:11.476Z,42.20
2018-06-01T18:20:41.663Z,42.20
2018-06-01T18:23:12.916Z,41.80
2018-06-01T18:25:41.355Z,41.90
2018-06-01T18:28:09.763Z,42.00
2018-06-01T18:30:38.231Z,41.90
2018-06-01T18:33:06.639Z,42.10
2018-06-01T18:35:35.818Z,42.60
2018-06-01T18:38:05.571Z,42.60
2018-06-01T18:40:33.975Z,43.20
2018-06-01T18:43:02.387Z,43.80
2018-06-01T18:45:31.517Z,43.70
2018-06-01T18:48:00.671Z,43.60
2018-06-01T18:50:30.329Z,43.60
2018-06-01T18:52:59.503Z,43.70
2018-06-01T18:55:28.807Z,43.80
2018-06-01T18:57:58.045Z,43.80
2018-06-01T19:00:26.433Z,43.80
2018-06-01T19:02:54.826Z,43.50
2018-06-01T19:05:23.328Z,43.80
2018-06-01T19:07:52.614Z,44.10
2018-06-01T19:10:20.983Z,44.10
2018-06-01T19:12:49.459Z,44.60
2018-06-01T19:15:17.855Z,45.00
2018-06-01T19:17:46.317Z,44.90
2018-06-01T19:20:14.707Z,45.20
2018-06-01T19:22:43.121Z,45.50
2018-06-01T19:25:11.587Z,46.00
2018-06-01T19:27:39.975Z,46.50
2018-06-01T19:30:08.357Z,46.40
2018-06-01T19:32:37.694Z,46.50
2018-06-01T19:35:06.123Z,46.70
2018-06-01T19:37:34.499Z,46.80
2018-06-01T19:40:02.954Z,47.00
2018-06-01T19:42:31.341Z,47.30
2018-06-01T19:44:59.705Z,47.30
2018-06-01T19:47:28.254Z,47.70
2018-06-01T19:49:56.747Z,47.90
2018-06-01T19:52:25.914Z,48.60
2018-06-01T19:54:54.372Z,48.60
2018-06-01T19:57:22.759Z,48.90
2018-06-01T19:59:51.153Z,48.80
2018-06-01T20:02:19.621Z,49.70
2018-06-01T20:04:48.053Z,49.00
2018-06-01T20:07:16.463Z,49.50
2018-06-01T20:09:44.931Z,49.30
2018-06-01T20:12:13.347Z,50.20
2018-06-01T20:14:41.725Z,50.40
2018-06-01T20:17:10.204Z,50.70
2018-06-01T20:19:38.613Z,51.50
2018-06-01T20:22:07.800Z,52.70
2018-06-01T20:24:36.229Z,52.70
2018-06-01T20:27:04.634Z,53.40
2018-06-01T20:29:33.026Z,53.40
2018-06-01T20:32:01.508Z,53.80
2018-06-01T20:34:29.904Z,53.60
2018-06-01T20:36:58.355Z,53.80
2018-06-01T20:39:26.810Z,53.80
2018-06-01T20:41:55.223Z,53.90
2018-06-01T20:44:24.266Z,54.00
2018-06-01T20:46:52.801Z,54.00
2018-06-01T20:49:21.185Z,54.60
2018-06-01T20:51:50.397Z,55.70
2018-06-01T20:54:23.845Z,55.60
2018-06-01T20:56:54.442Z,56.20
2018-06-01T20:59:24.673Z,56.50
2018-06-01T21:01:53.973Z,56.50
2018-06-01T21:04:24.061Z,56.90
2018-06-01T21:09:59.359Z,58.10
2018-06-01T21:12:37.455Z,56.90
2018-06-01T21:15:10.795Z,57.40
2018-06-01T21:17:42.903Z,57.70
2018-06-01T21:20:12.143Z,59.00
2018-06-01T21:22:43.967Z,59.10
2018-06-01T21:25:12.459Z,59.10
2018-06-01T21:27:41.623Z,59.90
2018-06-01T21:30:10.013Z,59.90
2018-06-01T21:32:42.589Z,60.00
2018-06-01T21:35:11.859Z,60.40
2018-06-01T21:37:43.074Z,60.60
2018-06-01T21:40:11.537Z,60.40
2018-06-01T21:42:41.544Z,60.70
2018-06-01T21:45:09.964Z,60.80
2018-06-01T21:47:42.815Z,61.70
2018-06-01T21:50:14.823Z,62.70
2018-06-01T21:52:43.303Z,62.60
2018-06-01T21:58:14.777Z,63.20
2018-06-01T22:00:43.813Z,63.30
2018-06-01T22:03:12.285Z,63.80
2018-06-01T22:05:42.075Z,64.80
2018-06-01T22:08:20.557Z,64.70
2018-06-01T22:10:56.961Z,65.20
2018-06-01T22:13:25.482Z,65.20
2018-06-01T22:15:58.642Z,66.00
2018-06-01T22:18:32.107Z,66.10
2018-06-01T22:21:00.569Z,66.30
2018-06-01T22:23:29.906Z,66.10
2018-06-01T22:25:58.292Z,66.10
2018-06-01T22:28:26.731Z,66.10
2018-06-01T22:30:56.040Z,66.50
2018-06-01T22:33:24.417Z,66.60
2018-06-01T22:35:52.895Z,67.00
2018-06-01T22:38:21.274Z,66.80
2018-06-01T22:40:50.464Z,67.00
2018-06-01T22:43:20.630Z,66.90
2018-06-01T22:45:49.025Z,66.90
2018-06-01T22:48:17.416Z,67.10
2018-06-01T22:50:46.618Z,67.60
2018-06-01T22:53:15.736Z,68.20
2018-06-01T22:55:44.890Z,68.70
2018-06-01T22:58:13.421Z,68.70
2018-06-01T23:00:41.827Z,68.60
2018-06-01T23:03:10.747Z,68.50
2018-06-01T23:05:39.221Z,68.40
2018-06-01T23:08:07.624Z,68.70
2018-06-01T23:10:36.790Z,69.10
2018-06-01T23:13:05.250Z,69.10
2018-06-01T23:15:33.633Z,69.40
2018-06-01T23:18:02.070Z,69.40
2018-06-01T23:20:31.272Z,68.90
2018-06-01T23:23:00.427Z,69.40
2018-06-01T23:25:28.828Z,69.40
2018-06-01T23:27:57.272Z,69.20
2018-06-01T23:30:25.674Z,70.20
2018-06-01T23:32:54.077Z,69.80
2018-06-01T23:35:22.515Z,70.30
2018-06-01T23:37:50.897Z,70.50
2018-06-01T23:40:19.427Z,70.30
2018-06-01T23:42:48.639Z,73.20
2018-06-01T23:45:17.027Z,72.50
2018-06-01T23:47:45.433Z,73.10
2018-06-01T23:50:13.895Z,73.90
2018-06-01T23:52:42.271Z,74.70
2018-06-01T23:55:10.687Z,74.50
2018-06-01T23:57:39.119Z,74.80
